sensor_id;sensor_type;location;lat;lon;timestamp;temperature;humidity
5466;DHT22;2755;50.728;7.108;2023-06-10T00:06:06;19.40;1.00
5466;DHT22;2755;50.728;7.108;2023-06-10T00:10:58;19.50;1.00
5466;DHT22;2755;50.728;7.108;2023-06-10T00:18:16;19.10;1.00
5466;DHT22;2755;50.728;7.108;2023-06-10T00:20:43;19.20;1.00
5466;DHT22;2755;50.728;7.108;2023-06-10T00:23:09;17.90;1.00
5466;DHT22;2755;50.728;7.108;2023-06-10T00:25:35;18.90;1.00
5466;DHT22;2755;50.728;7.108;2023-06-10T00:32:53;19.40;1.00
5466;DHT22;2755;50.728;7.108;2023-06-10T00:37:44;19.40;1.00
5466;DHT22;2755;50.728;7.108;2023-06-10T00:40:11;19.50;1.00
5466;DHT22;2755;50.728;7.108;2023-06-10T00:42:36;19.50;1.00
5466;DHT22;2755;50.728;7.108;2023-06-10T00:45:02;19.90;1.00
5466;DHT22;2755;50.728;7.108;2023-06-10T00:47:28;19.40;1.00
5466;DHT22;2755;50.728;7.108;2023-06-10T00:49:54;19.50;1.00
5466;DHT22;2755;50.728;7.108;2023-06-10T00:52:22;19.50;1.00
5466;DHT22;2755;50.728;7.108;2023-06-10T00:54:51;19.60;1.00
5466;DHT22;2755;50.728;7.108;2023-06-10T00:57:17;19.70;1.00
5466;DHT22;2755;50.728;7.108;2023-06-10T00:59:49;19.70;1.00
5466;DHT22;2755;50.728;7.108;2023-06-10T01:04:41;19.80;1.00
5466;DHT22;2755;50.728;7.108;2023-06-10T01:07:28;19.50;1.00
5466;DHT22;2755;50.728;7.108;2023-06-10T01:14:52;19.10;1.00
5466;DHT22;2755;50.728;7.108;2023-06-10T01:19:54;19.50;1.00
5466;DHT22;2755;50.728;7.108;2023-06-10T01:22:21;18.90;1.00
5466;DHT22;2755;50.728;7.108;2023-06-10T01:24:48;18.90;1.00
5466;DHT22;2755;50.728;7.108;2023-06-10T01:27:16;19.50;1.00
5466;DHT22;2755;50.728;7.108;2023-06-10T01:29:54;19.20;1.00
5466;DHT22;2755;50.728;7.108;2023-06-10T01:32:32;19.10;1.00
5466;DHT22;2755;50.728;7.108;2023-06-10T01:34:59;18.20;1.00
5466;DHT22;2755;50.728;7.108;2023-06-10T01:37:26;18.80;1.00
5466;DHT22;2755;50.728;7.108;2023-06-10T01:39:52;20.00;1.00
5466;DHT22;2755;50.728;7.108;2023-06-10T01:42:20;18.90;1.00
5466;DHT22;2755;50.728;7.108;2023-06-10T01:49:38;18.00;1.00
5466;DHT22;2755;50.728;7.108;2023-06-10T01:52:04;19.00;1.00
5466;DHT22;2755;50.728;7.108;2023-06-10T01:54:30;18.90;1.00
5466;DHT22;2755;50.728;7.108;2023-06-10T01:59:21;19.30;1.00
5466;DHT22;2755;50.728;7.108;2023-06-10T02:01:47;19.00;1.00
5466;DHT22;2755;50.728;7.108;2023-06-10T02:04:12;18.50;1.00
5466;DHT22;2755;50.728;7.108;2023-06-10T02:06:38;19.00;1.00
5466;DHT22;2755;50.728;7.108;2023-06-10T02:09:03;18.20;1.00
5466;DHT22;2755;50.728;7.108;2023-06-10T02:11:29;18.00;1.00
5466;DHT22;2755;50.728;7.108;2023-06-10T02:13:55;18.80;1.50
5466;DHT22;2755;50.728;7.108;2023-06-10T02:16:20;18.40;1.70
5466;DHT22;2755;50.728;7.108;2023-06-10T02:26:05;17.40;5.00
5466;DHT22;2755;50.728;7.108;2023-06-10T02:30:57;17.70;4.70
5466;DHT22;2755;50.728;7.108;2023-06-10T02:33:24;17.90;8.60
5466;DHT22;2755;50.728;7.108;2023-06-10T02:35:49;17.20;8.40
5466;DHT22;2755;50.728;7.108;2023-06-10T02:43:09;17.10;8.70
5466;DHT22;2755;50.728;7.108;2023-06-10T02:45:34;17.60;11.60
5466;DHT22;2755;50.728;7.108;2023-06-10T02:48:00;16.80;11.50
5466;DHT22;2755;50.728;7.108;2023-06-10T02:50:25;17.00;10.50
5466;DHT22;2755;50.728;7.108;2023-06-10T02:57:43;16.50;13.70
5466;DHT22;2755;50.728;7.108;2023-06-10T03:00:09;16.80;14.00
5466;DHT22;2755;50.728;7.108;2023-06-10T03:02:39;16.90;15.30
5466;DHT22;2755;50.728;7.108;2023-06-10T03:05:05;16.50;18.50
5466;DHT22;2755;50.728;7.108;2023-06-10T03:10:01;16.10;19.60
5466;DHT22;2755;50.728;7.108;2023-06-10T03:12:26;17.10;20.80
5466;DHT22;2755;50.728;7.108;2023-06-10T03:14:52;16.90;19.50
5466;DHT22;2755;50.728;7.108;2023-06-10T03:19:43;16.40;20.80
5466;DHT22;2755;50.728;7.108;2023-06-10T03:22:14;16.60;21.00
5466;DHT22;2755;50.728;7.108;2023-06-10T03:24:40;16.70;19.40
5466;DHT22;2755;50.728;7.108;2023-06-10T03:27:07;16.50;21.20
5466;DHT22;2755;50.728;7.108;2023-06-10T03:29:33;15.90;21.80
5466;DHT22;2755;50.728;7.108;2023-06-10T03:31:58;15.20;22.80
5466;DHT22;2755;50.728;7.108;2023-06-10T03:34:24;16.30;24.00
5466;DHT22;2755;50.728;7.108;2023-06-10T03:36:50;15.30;21.00
5466;DHT22;2755;50.728;7.108;2023-06-10T03:41:41;15.80;25.00
5466;DHT22;2755;50.728;7.108;2023-06-10T03:44:07;15.90;23.10
5466;DHT22;2755;50.728;7.108;2023-06-10T03:46:33;16.20;24.10
5466;DHT22;2755;50.728;7.108;2023-06-10T03:48:58;16.00;25.90
5466;DHT22;2755;50.728;7.108;2023-06-10T03:51:26;16.00;27.00
5466;DHT22;2755;50.728;7.108;2023-06-10T03:53:52;16.20;25.50
5466;DHT22;2755;50.728;7.108;2023-06-10T03:56:17;16.20;25.70
5466;DHT22;2755;50.728;7.108;2023-06-10T03:58:43;16.30;28.20
5466;DHT22;2755;50.728;7.108;2023-06-10T04:01:08;16.20;28.60
5466;DHT22;2755;50.728;7.108;2023-06-10T04:03:34;16.10;28.30
5466;DHT22;2755;50.728;7.108;2023-06-10T04:05:59;15.90;28.70
5466;DHT22;2755;50.728;7.108;2023-06-10T04:08:25;15.70;29.10
5466;DHT22;2755;50.728;7.108;2023-06-10T04:10:51;16.80;30.50
5466;DHT22;2755;50.728;7.108;2023-06-10T04:13:16;16.70;27.80
5466;DHT22;2755;50.728;7.108;2023-06-10T04:15:42;15.60;29.70
5466;DHT22;2755;50.728;7.108;2023-06-10T04:18:08;16.20;29.40
5466;DHT22;2755;50.728;7.108;2023-06-10T04:20:34;16.90;29.70
5466;DHT22;2755;50.728;7.108;2023-06-10T04:22:59;16.50;29.20
5466;DHT22;2755;50.728;7.108;2023-06-10T04:30:17;16.70;31.20
5466;DHT22;2755;50.728;7.108;2023-06-10T04:35:11;17.00;31.20
5466;DHT22;2755;50.728;7.108;2023-06-10T04:37:38;16.90;31.70
5466;DHT22;2755;50.728;7.108;2023-06-10T04:40:04;17.60;33.90
5466;DHT22;2755;50.728;7.108;2023-06-10T04:47:23;17.90;41.40
5466;DHT22;2755;50.728;7.108;2023-06-10T04:49:48;17.50;39.70
5466;DHT22;2755;50.728;7.108;2023-06-10T04:52:14;18.10;34.70
5466;DHT22;2755;50.728;7.108;2023-06-10T04:54:40;18.20;35.20
5466;DHT22;2755;50.728;7.108;2023-06-10T04:57:06;18.70;33.90
5466;DHT22;2755;50.728;7.108;2023-06-10T04:59:33;18.80;32.50
5466;DHT22;2755;50.728;7.108;2023-06-10T05:02:03;18.30;22.70
5466;DHT22;2755;50.728;7.108;2023-06-10T05:04:28;19.30;24.10
5466;DHT22;2755;50.728;7.108;2023-06-10T05:06:55;18.60;21.90
5466;DHT22;2755;50.728;7.108;2023-06-10T05:09:21;19.70;20.20
5466;DHT22;2755;50.728;7.108;2023-06-10T05:14:13;20.00;19.50
5466;DHT22;2755;50.728;7.108;2023-06-10T05:16:38;20.20;18.90
5466;DHT22;2755;50.728;7.108;2023-06-10T05:19:04;20.00;15.60
5466;DHT22;2755;50.728;7.108;2023-06-10T05:21:30;21.60;15.20
5466;DHT22;2755;50.728;7.108;2023-06-10T05:23:56;20.30;16.20
5466;DHT22;2755;50.728;7.108;2023-06-10T05:26:21;20.80;16.60
5466;DHT22;2755;50.728;7.108;2023-06-10T05:28:47;20.30;13.50
5466;DHT22;2755;50.728;7.108;2023-06-10T05:31:13;21.10;10.20
5466;DHT22;2755;50.728;7.108;2023-06-10T05:33:39;21.00;10.90
5466;DHT22;2755;50.728;7.108;2023-06-10T05:38:32;21.40;9.90
5466;DHT22;2755;50.728;7.108;2023-06-10T05:41:02;22.40;5.90
5466;DHT22;2755;50.728;7.108;2023-06-10T05:45:54;22.90;1.00
5466;DHT22;2755;50.728;7.108;2023-06-10T05:50:46;22.20;1.00
5466;DHT22;2755;50.728;7.108;2023-06-10T05:53:15;22.90;1.00
5466;DHT22;2755;50.728;7.108;2023-06-10T05:55:44;22.80;1.00
5466;DHT22;2755;50.728;7.108;2023-06-10T05:58:11;23.10;1.00
5466;DHT22;2755;50.728;7.108;2023-06-10T06:03:07;23.60;1.00
5466;DHT22;2755;50.728;7.108;2023-06-10T06:08:01;23.90;1.00
5466;DHT22;2755;50.728;7.108;2023-06-10T06:10:41;24.20;1.00
5466;DHT22;2755;50.728;7.108;2023-06-10T06:13:07;24.60;1.00
5466;DHT22;2755;50.728;7.108;2023-06-10T06:17:58;25.10;1.00
5466;DHT22;2755;50.728;7.108;2023-06-10T06:20:24;24.90;1.00
5466;DHT22;2755;50.728;7.108;2023-06-10T06:22:50;25.00;1.00
5466;DHT22;2755;50.728;7.108;2023-06-10T06:27:41;25.30;1.00
5466;DHT22;2755;50.728;7.108;2023-06-10T06:30:07;25.00;1.00
5466;DHT22;2755;50.728;7.108;2023-06-10T06:32:33;24.90;1.00
5466;DHT22;2755;50.728;7.108;2023-06-10T06:34:59;25.30;1.00
5466;DHT22;2755;50.728;7.108;2023-06-10T06:39:52;25.70;1.00
5466;DHT22;2755;50.728;7.108;2023-06-10T06:44:44;25.90;1.00
5466;DHT22;2755;50.728;7.108;2023-06-10T06:47:10;26.20;1.00
5466;DHT22;2755;50.728;7.108;2023-06-10T06:49:36;26.70;1.00
5466;DHT22;2755;50.728;7.108;2023-06-10T06:52:02;26.30;1.00
5466;DHT22;2755;50.728;7.108;2023-06-10T06:54:27;26.10;1.00
5466;DHT22;2755;50.728;7.108;2023-06-10T06:56:55;26.70;1.00
5466;DHT22;2755;50.728;7.108;2023-06-10T06:59:21;27.00;1.00
5466;DHT22;2755;50.728;7.108;2023-06-10T07:04:15;27.10;1.00
5466;DHT22;2755;50.728;7.108;2023-06-10T07:06:50;27.40;1.00
5466;DHT22;2755;50.728;7.108;2023-06-10T07:09:16;27.40;1.00
5466;DHT22;2755;50.728;7.108;2023-06-10T07:11:42;27.70;1.00
5466;DHT22;2755;50.728;7.108;2023-06-10T07:14:07;27.60;1.00
5466;DHT22;2755;50.728;7.108;2023-06-10T07:18:59;27.90;1.00
5466;DHT22;2755;50.728;7.108;2023-06-10T07:21:25;27.00;1.00
5466;DHT22;2755;50.728;7.108;2023-06-10T07:23:50;27.40;1.00
5466;DHT22;2755;50.728;7.108;2023-06-10T07:26:19;27.60;1.00
5466;DHT22;2755;50.728;7.108;2023-06-10T07:28:44;27.80;1.00
5466;DHT22;2755;50.728;7.108;2023-06-10T07:31:10;28.50;1.00
5466;DHT22;2755;50.728;7.108;2023-06-10T07:33:37;28.40;1.00
5466;DHT22;2755;50.728;7.108;2023-06-10T07:36:05;29.20;1.00
5466;DHT22;2755;50.728;7.108;2023-06-10T07:38:30;29.00;1.00
5466;DHT22;2755;50.728;7.108;2023-06-10T07:43:22;29.10;1.00
5466;DHT22;2755;50.728;7.108;2023-06-10T07:45:48;29.40;1.00
5466;DHT22;2755;50.728;7.108;2023-06-10T07:48:13;29.40;1.00
5466;DHT22;2755;50.728;7.108;2023-06-10T07:50:39;29.40;1.00
5466;DHT22;2755;50.728;7.108;2023-06-10T07:53:05;29.20;1.00
5466;DHT22;2755;50.728;7.108;2023-06-10T07:55:31;30.70;1.00
5466;DHT22;2755;50.728;7.108;2023-06-10T07:57:56;29.70;1.00
5466;DHT22;2755;50.728;7.108;2023-06-10T08:00:22;30.00;1.00
5466;DHT22;2755;50.728;7.108;2023-06-10T08:02:48;29.60;1.00
5466;DHT22;2755;50.728;7.108;2023-06-10T08:05:13;30.10;1.00
5466;DHT22;2755;50.728;7.108;2023-06-10T08:07:39;30.10;1.00
5466;DHT22;2755;50.728;7.108;2023-06-10T08:10:06;29.80;1.00
5466;DHT22;2755;50.728;7.108;2023-06-10T08:12:32;31.00;1.00
5466;DHT22;2755;50.728;7.108;2023-06-10T08:19:50;30.20;1.00
5466;DHT22;2755;50.728;7.108;2023-06-10T08:27:08;30.60;1.00
5466;DHT22;2755;50.728;7.108;2023-06-10T08:31:59;30.70;1.00
5466;DHT22;2755;50.728;7.108;2023-06-10T08:36:51;30.80;1.00
5466;DHT22;2755;50.728;7.108;2023-06-10T08:39:19;31.70;1.00
5466;DHT22;2755;50.728;7.108;2023-06-10T08:41:55;31.60;1.00
5466;DHT22;2755;50.728;7.108;2023-06-10T08:44:28;31.90;1.00
5466;DHT22;2755;50.728;7.108;2023-06-10T08:46:56;31.80;1.00
5466;DHT22;2755;50.728;7.108;2023-06-10T08:49:25;31.70;1.00
5466;DHT22;2755;50.728;7.108;2023-06-10T08:52:00;32.10;1.00
5466;DHT22;2755;50.728;7.108;2023-06-10T08:54:31;32.30;1.00
5466;DHT22;2755;50.728;7.108;2023-06-10T08:56:59;32.80;1.00
5466;DHT22;2755;50.728;7.108;2023-06-10T08:59:25;32.70;1.00
5466;DHT22;2755;50.728;7.108;2023-06-10T09:01:52;32.30;1.00
5466;DHT22;2755;50.728;7.108;2023-06-10T09:04:19;33.00;1.00
5466;DHT22;2755;50.728;7.108;2023-06-10T09:06:45;32.60;1.00
5466;DHT22;2755;50.728;7.108;2023-06-10T09:14:04;32.20;1.00
5466;DHT22;2755;50.728;7.108;2023-06-10T09:16:31;32.60;1.00
5466;DHT22;2755;50.728;7.108;2023-06-10T09:18:56;31.80;1.00
5466;DHT22;2755;50.728;7.108;2023-06-10T09:21:23;33.10;1.00
5466;DHT22;2755;50.728;7.108;2023-06-10T09:28:47;33.30;1.00
5466;DHT22;2755;50.728;7.108;2023-06-10T09:31:13;33.00;1.00
5466;DHT22;2755;50.728;7.108;2023-06-10T09:33:39;33.30;1.00
5466;DHT22;2755;50.728;7.108;2023-06-10T09:36:05;33.30;1.00
5466;DHT22;2755;50.728;7.108;2023-06-10T09:38:34;33.50;1.00
5466;DHT22;2755;50.728;7.108;2023-06-10T09:40:59;33.60;1.00
5466;DHT22;2755;50.728;7.108;2023-06-10T09:43:46;33.80;1.00
5466;DHT22;2755;50.728;7.108;2023-06-10T09:46:15;33.80;1.00
5466;DHT22;2755;50.728;7.108;2023-06-10T09:48:46;33.90;1.00
5466;DHT22;2755;50.728;7.108;2023-06-10T09:51:13;34.00;1.00
5466;DHT22;2755;50.728;7.108;2023-06-10T09:53:40;34.20;1.00
5466;DHT22;2755;50.728;7.108;2023-06-10T09:56:06;34.00;1.00
5466;DHT22;2755;50.728;7.108;2023-06-10T09:58:38;34.40;1.00
5466;DHT22;2755;50.728;7.108;2023-06-10T10:01:11;34.90;1.00
5466;DHT22;2755;50.728;7.108;2023-06-10T10:03:44;34.90;1.00
5466;DHT22;2755;50.728;7.108;2023-06-10T10:08:37;34.90;1.00
5466;DHT22;2755;50.728;7.108;2023-06-10T10:11:03;34.20;1.00
5466;DHT22;2755;50.728;7.108;2023-06-10T10:15:57;35.10;1.00
5466;DHT22;2755;50.728;7.108;2023-06-10T10:18:25;34.50;1.00
5466;DHT22;2755;50.728;7.108;2023-06-10T10:23:26;34.20;1.00
5466;DHT22;2755;50.728;7.108;2023-06-10T10:25:54;33.90;1.00
5466;DHT22;2755;50.728;7.108;2023-06-10T10:28:21;33.90;1.00
5466;DHT22;2755;50.728;7.108;2023-06-10T10:30:52;33.70;1.00
5466;DHT22;2755;50.728;7.108;2023-06-10T10:33:31;33.50;1.00
5466;DHT22;2755;50.728;7.108;2023-06-10T10:35:58;33.50;1.00
5466;DHT22;2755;50.728;7.108;2023-06-10T10:38:25;34.10;1.00
5466;DHT22;2755;50.728;7.108;2023-06-10T10:40:51;34.40;1.00
5466;DHT22;2755;50.728;7.108;2023-06-10T10:43:17;33.80;1.00
5466;DHT22;2755;50.728;7.108;2023-06-10T10:45:46;34.00;1.00
5466;DHT22;2755;50.728;7.108;2023-06-10T10:48:12;34.00;1.00
5466;DHT22;2755;50.728;7.108;2023-06-10T10:50:39;33.90;1.00
5466;DHT22;2755;50.728;7.108;2023-06-10T10:53:06;34.30;1.00
5466;DHT22;2755;50.728;7.108;2023-06-10T10:55:32;33.10;1.00
5466;DHT22;2755;50.728;7.108;2023-06-10T10:58:08;33.40;1.00
5466;DHT22;2755;50.728;7.108;2023-06-10T11:00:43;33.90;1.00
5466;DHT22;2755;50.728;7.108;2023-06-10T11:03:14;33.10;1.00
5466;DHT22;2755;50.728;7.108;2023-06-10T11:05:43;32.20;1.00
5466;DHT22;2755;50.728;7.108;2023-06-10T11:10:37;31.10;1.00
5466;DHT22;2755;50.728;7.108;2023-06-10T11:13:13;31.00;1.00
5466;DHT22;2755;50.728;7.108;2023-06-10T11:15:47;30.70;1.00
5466;DHT22;2755;50.728;7.108;2023-06-10T11:18:13;30.30;1.00
5466;DHT22;2755;50.728;7.108;2023-06-10T11:23:08;30.40;1.00
5466;DHT22;2755;50.728;7.108;2023-06-10T11:25:40;30.20;1.00
5466;DHT22;2755;50.728;7.108;2023-06-10T11:28:27;30.10;1.00
5466;DHT22;2755;50.728;7.108;2023-06-10T11:30:57;30.30;1.00
5466;DHT22;2755;50.728;7.108;2023-06-10T11:33:24;29.80;1.00
5466;DHT22;2755;50.728;7.108;2023-06-10T11:35:50;28.80;1.00
5466;DHT22;2755;50.728;7.108;2023-06-10T11:43:13;29.80;1.00
5466;DHT22;2755;50.728;7.108;2023-06-10T11:45:41;30.90;1.00
5466;DHT22;2755;50.728;7.108;2023-06-10T11:48:10;31.50;1.00
5466;DHT22;2755;50.728;7.108;2023-06-10T11:50:36;30.80;1.00
5466;DHT22;2755;50.728;7.108;2023-06-10T11:53:02;33.60;1.00
5466;DHT22;2755;50.728;7.108;2023-06-10T11:55:44;30.50;1.00
5466;DHT22;2755;50.728;7.108;2023-06-10T11:58:20;33.30;1.00
5466;DHT22;2755;50.728;7.108;2023-06-10T12:00:55;34.10;1.00
5466;DHT22;2755;50.728;7.108;2023-06-10T12:03:26;33.60;1.00
5466;DHT22;2755;50.728;7.108;2023-06-10T12:06:03;33.60;1.00
5466;DHT22;2755;50.728;7.108;2023-06-10T12:08:29;33.80;1.00
5466;DHT22;2755;50.728;7.108;2023-06-10T12:10:56;33.90;1.00
5466;DHT22;2755;50.728;7.108;2023-06-10T12:15:49;34.40;1.00
5466;DHT22;2755;50.728;7.108;2023-06-10T12:18:22;33.50;1.00
5466;DHT22;2755;50.728;7.108;2023-06-10T12:20:48;35.50;1.00
5466;DHT22;2755;50.728;7.108;2023-06-10T12:23:15;34.30;1.00
5466;DHT22;2755;50.728;7.108;2023-06-10T12:25:52;34.00;1.00
5466;DHT22;2755;50.728;7.108;2023-06-10T12:28:24;34.10;1.00
5466;DHT22;2755;50.728;7.108;2023-06-10T12:30:50;34.20;1.00
5466;DHT22;2755;50.728;7.108;2023-06-10T12:33:22;33.40;1.00
5466;DHT22;2755;50.728;7.108;2023-06-10T12:35:49;33.40;1.00
5466;DHT22;2755;50.728;7.108;2023-06-10T12:38:18;34.50;1.00
5466;DHT22;2755;50.728;7.108;2023-06-10T12:40:47;33.10;1.00
5466;DHT22;2755;50.728;7.108;2023-06-10T12:43:13;33.90;1.00
5466;DHT22;2755;50.728;7.108;2023-06-10T12:45:40;34.60;1.00
5466;DHT22;2755;50.728;7.108;2023-06-10T12:48:12;32.50;1.00
5466;DHT22;2755;50.728;7.108;2023-06-10T12:53:09;34.20;1.00
5466;DHT22;2755;50.728;7.108;2023-06-10T12:58:02;33.90;1.00
5466;DHT22;2755;50.728;7.108;2023-06-10T13:00:28;33.20;1.00
5466;DHT22;2755;50.728;7.108;2023-06-10T13:02:56;34.10;1.00
5466;DHT22;2755;50.728;7.108;2023-06-10T13:05:22;33.90;1.00
5466;DHT22;2755;50.728;7.108;2023-06-10T13:07:47;33.20;1.00
5466;DHT22;2755;50.728;7.108;2023-06-10T13:15:06;30.50;1.00
5466;DHT22;2755;50.728;7.108;2023-06-10T13:17:32;31.80;1.00
5466;DHT22;2755;50.728;7.108;2023-06-10T13:19:59;31.60;1.00
5466;DHT22;2755;50.728;7.108;2023-06-10T13:22:26;30.80;1.00
5466;DHT22;2755;50.728;7.108;2023-06-10T13:56:35;31.30;1.00
5466;DHT22;2755;50.728;7.108;2023-06-10T14:11:21;31.00;1.00
5466;DHT22;2755;50.728;7.108;2023-06-10T14:13:46;31.20;1.00
5466;DHT22;2755;50.728;7.108;2023-06-10T14:18:39;30.80;1.00
5466;DHT22;2755;50.728;7.108;2023-06-10T14:25:59;31.20;1.00
5466;DHT22;2755;50.728;7.108;2023-06-10T14:33:23;31.50;1.00
5466;DHT22;2755;50.728;7.108;2023-06-10T14:38:14;31.20;1.00
5466;DHT22;2755;50.728;7.108;2023-06-10T14:40:44;31.30;1.00
5466;DHT22;2755;50.728;7.108;2023-06-10T14:43:11;30.90;1.00
5466;DHT22;2755;50.728;7.108;2023-06-10T14:50:35;31.40;1.00
5466;DHT22;2755;50.728;7.108;2023-06-10T14:55:38;30.30;1.00
5466;DHT22;2755;50.728;7.108;2023-06-10T15:17:35;30.70;1.00
5466;DHT22;2755;50.728;7.108;2023-06-10T15:24:53;30.00;1.00
5466;DHT22;2755;50.728;7.108;2023-06-10T15:27:23;28.80;1.00
5466;DHT22;2755;50.728;7.108;2023-06-10T15:32:14;30.20;1.00
5466;DHT22;2755;50.728;7.108;2023-06-10T15:37:06;30.00;1.00
5466;DHT22;2755;50.728;7.108;2023-06-10T15:39:31;29.10;1.00
5466;DHT22;2755;50.728;7.108;2023-06-10T15:44:23;30.70;1.00
5466;DHT22;2755;50.728;7.108;2023-06-10T15:46:48;30.50;1.00
5466;DHT22;2755;50.728;7.108;2023-06-10T15:49:15;30.90;1.00
5466;DHT22;2755;50.728;7.108;2023-06-10T15:58:59;30.60;1.00
5466;DHT22;2755;50.728;7.108;2023-06-10T16:06:16;30.40;1.00
5466;DHT22;2755;50.728;7.108;2023-06-10T16:11:08;30.30;1.00
5466;DHT22;2755;50.728;7.108;2023-06-10T16:16:03;30.10;1.00
5466;DHT22;2755;50.728;7.108;2023-06-10T16:28:12;29.00;1.00
5466;DHT22;2755;50.728;7.108;2023-06-10T16:30:38;30.80;1.00
5466;DHT22;2755;50.728;7.108;2023-06-10T16:33:03;29.50;1.00
5466;DHT22;2755;50.728;7.108;2023-06-10T16:37:56;29.50;1.00
5466;DHT22;2755;50.728;7.108;2023-06-10T16:40:22;29.30;1.00
5466;DHT22;2755;50.728;7.108;2023-06-10T16:42:48;29.10;1.00
5466;DHT22;2755;50.728;7.108;2023-06-10T16:45:14;29.60;1.00
5466;DHT22;2755;50.728;7.108;2023-06-10T16:52:31;29.30;1.00
5466;DHT22;2755;50.728;7.108;2023-06-10T16:57:23;29.20;1.00
5466;DHT22;2755;50.728;7.108;2023-06-10T17:02:14;29.30;1.00
5466;DHT22;2755;50.728;7.108;2023-06-10T17:04:40;29.20;1.00
5466;DHT22;2755;50.728;7.108;2023-06-10T17:09:32;29.10;1.00
5466;DHT22;2755;50.728;7.108;2023-06-10T17:16:51;27.40;1.00
5466;DHT22;2755;50.728;7.108;2023-06-10T17:21:42;28.80;1.00
5466;DHT22;2755;50.728;7.108;2023-06-10T17:29:00;28.30;1.00
5466;DHT22;2755;50.728;7.108;2023-06-10T17:31:27;28.60;1.00
5466;DHT22;2755;50.728;7.108;2023-06-10T17:33:53;29.10;1.00
5466;DHT22;2755;50.728;7.108;2023-06-10T17:36:18;28.90;1.00
5466;DHT22;2755;50.728;7.108;2023-06-10T17:38:44;28.20;1.00
5466;DHT22;2755;50.728;7.108;2023-06-10T17:41:10;28.30;1.00
5466;DHT22;2755;50.728;7.108;2023-06-10T17:46:01;28.60;1.00
5466;DHT22;2755;50.728;7.108;2023-06-10T17:48:28;28.70;1.00
5466;DHT22;2755;50.728;7.108;2023-06-10T17:50:54;28.30;1.00
5466;DHT22;2755;50.728;7.108;2023-06-10T17:53:19;28.50;1.00
5466;DHT22;2755;50.728;7.108;2023-06-10T17:55:46;28.00;1.00
5466;DHT22;2755;50.728;7.108;2023-06-10T17:58:11;28.70;1.00
5466;DHT22;2755;50.728;7.108;2023-06-10T18:00:37;28.20;1.00
5466;DHT22;2755;50.728;7.108;2023-06-10T18:03:03;28.70;1.00
5466;DHT22;2755;50.728;7.108;2023-06-10T18:07:54;28.00;1.00
5466;DHT22;2755;50.728;7.108;2023-06-10T18:10:20;28.20;1.00
5466;DHT22;2755;50.728;7.108;2023-06-10T18:12:45;27.60;1.00
5466;DHT22;2755;50.728;7.108;2023-06-10T18:15:11;28.30;1.00
5466;DHT22;2755;50.728;7.108;2023-06-10T18:17:37;28.30;1.00
5466;DHT22;2755;50.728;7.108;2023-06-10T18:20:04;28.00;1.00
5466;DHT22;2755;50.728;7.108;2023-06-10T18:22:30;28.60;1.00
5466;DHT22;2755;50.728;7.108;2023-06-10T18:24:57;27.70;1.00
5466;DHT22;2755;50.728;7.108;2023-06-10T18:29:49;28.00;1.00
5466;DHT22;2755;50.728;7.108;2023-06-10T18:34:40;27.30;1.00
5466;DHT22;2755;50.728;7.108;2023-06-10T18:37:06;27.70;1.00
5466;DHT22;2755;50.728;7.108;2023-06-10T18:39:33;27.40;1.00
5466;DHT22;2755;50.728;7.108;2023-06-10T18:41:59;28.20;1.00
5466;DHT22;2755;50.728;7.108;2023-06-10T18:44:27;27.10;1.00
5466;DHT22;2755;50.728;7.108;2023-06-10T18:46:53;27.70;1.00
5466;DHT22;2755;50.728;7.108;2023-06-10T18:49:18;27.40;1.00
5466;DHT22;2755;50.728;7.108;2023-06-10T18:51:44;27.40;1.00
5466;DHT22;2755;50.728;7.108;2023-06-10T18:54:09;27.50;1.00
5466;DHT22;2755;50.728;7.108;2023-06-10T18:56:35;27.50;1.00
5466;DHT22;2755;50.728;7.108;2023-06-10T18:59:00;26.80;1.00
5466;DHT22;2755;50.728;7.108;2023-06-10T19:01:26;27.50;1.00
5466;DHT22;2755;50.728;7.108;2023-06-10T19:03:52;26.60;1.00
5466;DHT22;2755;50.728;7.108;2023-06-10T19:06:17;25.60;1.00
5466;DHT22;2755;50.728;7.108;2023-06-10T19:08:43;27.00;1.00
5466;DHT22;2755;50.728;7.108;2023-06-10T19:13:34;26.90;1.00
5466;DHT22;2755;50.728;7.108;2023-06-10T19:16:00;26.30;1.00
5466;DHT22;2755;50.728;7.108;2023-06-10T19:18:27;26.30;1.00
5466;DHT22;2755;50.728;7.108;2023-06-10T19:20:53;26.10;1.00
5466;DHT22;2755;50.728;7.108;2023-06-10T19:23:18;26.20;1.00
5466;DHT22;2755;50.728;7.108;2023-06-10T19:25:44;26.10;1.00
5466;DHT22;2755;50.728;7.108;2023-06-10T19:28:10;25.80;1.00
5466;DHT22;2755;50.728;7.108;2023-06-10T19:33:02;26.30;1.00
5466;DHT22;2755;50.728;7.108;2023-06-10T19:37:53;25.90;1.00
5466;DHT22;2755;50.728;7.108;2023-06-10T19:40:19;26.50;1.00
5466;DHT22;2755;50.728;7.108;2023-06-10T19:42:45;25.60;1.00
5466;DHT22;2755;50.728;7.108;2023-06-10T19:45:11;25.80;1.00
5466;DHT22;2755;50.728;7.108;2023-06-10T19:52:28;25.70;1.00
5466;DHT22;2755;50.728;7.108;2023-06-10T19:54:54;25.80;1.00
5466;DHT22;2755;50.728;7.108;2023-06-10T19:57:24;25.50;1.00
5466;DHT22;2755;50.728;7.108;2023-06-10T19:59:50;25.60;1.00
5466;DHT22;2755;50.728;7.108;2023-06-10T20:02:16;25.40;1.00
5466;DHT22;2755;50.728;7.108;2023-06-10T20:04:41;25.30;1.00
5466;DHT22;2755;50.728;7.108;2023-06-10T20:09:33;24.80;1.00
5466;DHT22;2755;50.728;7.108;2023-06-10T20:12:00;24.60;1.00
5466;DHT22;2755;50.728;7.108;2023-06-10T20:14:25;24.90;1.00
5466;DHT22;2755;50.728;7.108;2023-06-10T20:19:17;24.00;1.00
5466;DHT22;2755;50.728;7.108;2023-06-10T20:24:08;24.40;1.00
5466;DHT22;2755;50.728;7.108;2023-06-10T20:29:01;24.50;1.00
5466;DHT22;2755;50.728;7.108;2023-06-10T20:31:26;24.40;1.00
5466;DHT22;2755;50.728;7.108;2023-06-10T20:33:53;24.10;1.00
5466;DHT22;2755;50.728;7.108;2023-06-10T20:36:19;24.10;1.00
5466;DHT22;2755;50.728;7.108;2023-06-10T20:38:45;23.70;1.00
5466;DHT22;2755;50.728;7.108;2023-06-10T20:43:38;24.10;1.00
5466;DHT22;2755;50.728;7.108;2023-06-10T20:46:03;23.90;1.00
5466;DHT22;2755;50.728;7.108;2023-06-10T20:48:29;24.30;1.00
5466;DHT22;2755;50.728;7.108;2023-06-10T20:50:55;23.60;1.00
5466;DHT22;2755;50.728;7.108;2023-06-10T21:00:40;24.20;1.00
5466;DHT22;2755;50.728;7.108;2023-06-10T21:03:06;24.20;1.00
5466;DHT22;2755;50.728;7.108;2023-06-10T21:05:32;24.60;1.00
5466;DHT22;2755;50.728;7.108;2023-06-10T21:07:57;23.80;1.00
5466;DHT22;2755;50.728;7.108;2023-06-10T21:10:23;24.10;1.00
5466;DHT22;2755;50.728;7.108;2023-06-10T21:15:16;24.60;1.00
5466;DHT22;2755;50.728;7.108;2023-06-10T21:20:08;23.50;1.00
5466;DHT22;2755;50.728;7.108;2023-06-10T21:22:34;23.90;1.00
5466;DHT22;2755;50.728;7.108;2023-06-10T21:24:59;24.30;1.00
5466;DHT22;2755;50.728;7.108;2023-06-10T21:27:25;23.90;1.00
5466;DHT22;2755;50.728;7.108;2023-06-10T21:29:50;23.90;1.00
5466;DHT22;2755;50.728;7.108;2023-06-10T21:32:16;23.40;1.00
5466;DHT22;2755;50.728;7.108;2023-06-10T21:34:41;23.70;1.00
5466;DHT22;2755;50.728;7.108;2023-06-10T21:37:07;23.10;1.00
5466;DHT22;2755;50.728;7.108;2023-06-10T21:39:33;23.20;1.00
5466;DHT22;2755;50.728;7.108;2023-06-10T21:41:58;23.20;1.00
5466;DHT22;2755;50.728;7.108;2023-06-10T21:46:50;22.60;1.00
5466;DHT22;2755;50.728;7.108;2023-06-10T21:49:15;23.10;1.00
5466;DHT22;2755;50.728;7.108;2023-06-10T21:51:41;22.90;1.00
5466;DHT22;2755;50.728;7.108;2023-06-10T21:54:13;22.90;1.00
5466;DHT22;2755;50.728;7.108;2023-06-10T21:56:39;22.60;1.00
5466;DHT22;2755;50.728;7.108;2023-06-10T21:59:06;22.90;1.00
5466;DHT22;2755;50.728;7.108;2023-06-10T22:01:31;22.50;1.00
5466;DHT22;2755;50.728;7.108;2023-06-10T22:04:00;23.10;1.00
5466;DHT22;2755;50.728;7.108;2023-06-10T22:06:26;22.90;1.00
5466;DHT22;2755;50.728;7.108;2023-06-10T22:11:18;22.60;1.00
5466;DHT22;2755;50.728;7.108;2023-06-10T22:13:43;21.90;1.00
5466;DHT22;2755;50.728;7.108;2023-06-10T22:16:09;22.70;1.00